Scribner, Nebraska
Current Conditions -  °F | °C
As of 6:55 AM on Saturday 25 Oct 2014 (Local Time) from KFET Reporting Station
Clear Clear  
Wind Chill: 41°   Ceiling: Unl
Heat Index: 44°   Visibility: 10mi
Dew Point: 42°   Wind: 5mph
Humidity: 93%   Direction: 290°WNW
Pressure: 30.07"   Gusts: NA
Location:  41.67°N, 96.67°W
Report Text: KFET 251155Z AUTO 29004KT 10SM CLR 07/06 A3007 RMK AO2 T00650055 10105 20065
Loading
Personal Weather Stations






























Interactive Weather Map
Tropical Storm Tracking
New forecast layout! Learn more

10-Day Weather Forecast

Advertisements
Track Severe Weather on mobile